createdAt,value
2022-08-29T00:02:22.188Z,29.30
2022-08-29T00:04:50.035Z,29.30
2022-08-29T00:07:17.864Z,29.30
2022-08-29T00:09:45.612Z,29.40
2022-08-29T00:12:14.666Z,29.40
2022-08-29T00:14:42.459Z,29.30
2022-08-29T00:17:10.290Z,29.30
2022-08-29T00:19:38.014Z,29.30
2022-08-29T00:22:06.046Z,29.30
2022-08-29T00:24:33.855Z,29.30
2022-08-29T00:27:01.851Z,29.30
2022-08-29T00:29:30.925Z,29.30
2022-08-29T00:31:58.704Z,29.30
2022-08-29T00:34:26.525Z,29.30
2022-08-29T00:36:54.873Z,29.30
2022-08-29T00:39:23.145Z,29.30
2022-08-29T00:41:51.920Z,29.30
2022-08-29T00:44:19.702Z,29.30
2022-08-29T00:47:00.263Z,29.30
2022-08-29T00:49:36.645Z,29.30
2022-08-29T00:52:08.897Z,29.30
2022-08-29T00:54:38.155Z,29.30
2022-08-29T00:57:07.239Z,29.30
2022-08-29T00:59:38.184Z,29.30
2022-08-29T01:02:11.796Z,29.30
2022-08-29T01:04:40.477Z,29.30
2022-08-29T01:07:08.853Z,29.30
2022-08-29T01:09:38.365Z,29.30
2022-08-29T01:12:15.705Z,29.30
2022-08-29T01:14:47.746Z,29.30
2022-08-29T01:17:21.932Z,29.30
2022-08-29T01:19:55.737Z,29.30
2022-08-29T01:22:34.962Z,29.30
2022-08-29T01:25:08.260Z,29.30
2022-08-29T01:27:39.356Z,29.30
2022-08-29T01:30:08.860Z,29.30
2022-08-29T01:32:36.668Z,29.30
2022-08-29T01:35:05.502Z,29.30
2022-08-29T01:37:34.784Z,29.30
2022-08-29T01:40:04.505Z,29.30
2022-08-29T01:42:36.473Z,29.30
2022-08-29T01:45:09.677Z,29.30
2022-08-29T01:47:38.894Z,29.30
2022-08-29T01:50:10.163Z,29.30
2022-08-29T01:52:37.979Z,29.30
2022-08-29T01:55:07.830Z,29.30
2022-08-29T01:57:38.049Z,29.30
2022-08-29T02:00:08.905Z,29.30
2022-08-29T02:02:38.294Z,29.30
2022-08-29T02:05:07.327Z,29.30
2022-08-29T02:07:35.095Z,29.30
2022-08-29T02:10:02.968Z,29.30
2022-08-29T02:12:32.840Z,29.30
2022-08-29T02:15:01.128Z,29.30
2022-08-29T02:17:29.624Z,29.30
2022-08-29T02:19:57.345Z,29.30
2022-08-29T02:22:25.762Z,29.30
2022-08-29T02:24:53.469Z,29.30
2022-08-29T02:27:21.213Z,29.30
2022-08-29T02:29:50.369Z,29.30
2022-08-29T02:32:18.122Z,29.30
2022-08-29T02:34:47.724Z,29.30
2022-08-29T02:37:16.733Z,29.30
2022-08-29T02:39:44.545Z,29.30
2022-08-29T02:42:12.269Z,29.30
2022-08-29T02:44:40.063Z,29.30
2022-08-29T02:47:09.557Z,29.30
2022-08-29T02:49:38.077Z,29.30
2022-08-29T02:52:08.423Z,29.30
2022-08-29T02:54:36.458Z,29.30
2022-08-29T02:57:04.608Z,29.30
2022-08-29T02:59:32.368Z,29.30
2022-08-29T03:02:00.158Z,29.30
2022-08-29T03:04:29.428Z,29.30
2022-08-29T03:06:57.614Z,29.30
2022-08-29T03:09:25.342Z,29.30
2022-08-29T03:11:56.025Z,29.30
2022-08-29T03:14:23.945Z,29.30
2022-08-29T03:16:52.232Z,29.30
2022-08-29T03:19:20.214Z,29.30
2022-08-29T03:21:49.531Z,29.30
2022-08-29T03:24:17.282Z,29.30
2022-08-29T03:26:56.603Z,29.30
2022-08-29T03:29:25.478Z,29.30
2022-08-29T03:31:53.641Z,29.20
2022-08-29T03:34:21.611Z,29.30
2022-08-29T03:36:50.653Z,29.20
2022-08-29T03:39:18.435Z,29.30
2022-08-29T03:41:46.429Z,29.20
2022-08-29T03:44:14.412Z,29.20
2022-08-29T03:46:42.402Z,29.20
2022-08-29T03:49:10.932Z,29.20
2022-08-29T03:51:40.310Z,29.20
2022-08-29T03:54:09.721Z,29.20
2022-08-29T03:56:37.461Z,29.30
2022-08-29T03:59:05.228Z,29.20
2022-08-29T04:01:33.124Z,29.20
2022-08-29T04:04:01.311Z,29.20
2022-08-29T04:06:29.264Z,29.20
2022-08-29T04:08:58.914Z,29.20
2022-08-29T04:11:29.754Z,29.20
2022-08-29T04:13:57.467Z,29.20
2022-08-29T04:16:30.399Z,29.20
2022-08-29T04:18:59.821Z,29.20
2022-08-29T04:21:27.629Z,29.20
2022-08-29T04:23:55.467Z,29.20
2022-08-29T04:26:38.693Z,29.20
2022-08-29T04:29:10.007Z,29.20
2022-08-29T04:31:38.874Z,29.20
2022-08-29T04:34:08.414Z,29.20
2022-08-29T04:36:37.284Z,29.20
2022-08-29T04:39:07.024Z,29.20
2022-08-29T04:41:35.237Z,29.20
2022-08-29T04:44:03.254Z,29.20
2022-08-29T04:46:32.460Z,29.20
2022-08-29T04:49:04.058Z,29.20
2022-08-29T04:51:34.132Z,29.20
2022-08-29T04:54:02.278Z,29.20
2022-08-29T04:56:30.085Z,29.20
2022-08-29T04:58:57.818Z,29.20
2022-08-29T05:01:27.236Z,29.20
2022-08-29T05:03:57.875Z,29.20
2022-08-29T05:06:25.731Z,29.20
2022-08-29T05:08:59.361Z,29.20
2022-08-29T05:11:29.758Z,29.20
2022-08-29T05:13:58.533Z,29.20
2022-08-29T05:16:26.281Z,29.20
2022-08-29T05:18:53.979Z,29.20
2022-08-29T05:21:27.565Z,29.20
2022-08-29T05:23:56.402Z,29.20
2022-08-29T05:26:24.967Z,29.20
2022-08-29T05:28:52.748Z,29.20
2022-08-29T05:31:22.143Z,29.20
2022-08-29T05:33:50.175Z,29.20
2022-08-29T05:36:17.917Z,29.20
2022-08-29T05:38:47.220Z,29.20
2022-08-29T05:41:15.281Z,29.20
2022-08-29T05:43:43.098Z,29.20
2022-08-29T05:46:11.585Z,29.20
2022-08-29T05:48:41.352Z,29.20
2022-08-29T05:51:15.217Z,29.20
2022-08-29T05:53:43.004Z,29.10
2022-08-29T05:56:12.752Z,29.10
2022-08-29T05:58:40.503Z,29.10
2022-08-29T06:01:08.218Z,29.20
2022-08-29T06:03:36.895Z,29.20
2022-08-29T06:06:04.792Z,29.20
2022-08-29T06:08:32.509Z,29.20
2022-08-29T06:11:00.249Z,29.20
2022-08-29T06:13:29.309Z,29.20
2022-08-29T06:15:57.300Z,29.20
2022-08-29T06:18:29.849Z,29.20
2022-08-29T06:21:05.498Z,29.20
2022-08-29T06:23:33.483Z,29.20
2022-08-29T06:26:01.360Z,29.20
2022-08-29T06:28:31.126Z,29.20
2022-08-29T06:31:05.330Z,29.20
2022-08-29T06:33:33.125Z,29.20
2022-08-29T06:36:00.865Z,29.20
2022-08-29T06:38:28.630Z,29.20
2022-08-29T06:40:56.371Z,29.20
2022-08-29T06:43:24.108Z,29.20
2022-08-29T06:45:53.546Z,29.20
2022-08-29T06:48:21.438Z,29.20
2022-08-29T06:50:49.184Z,29.20
2022-08-29T06:53:27.506Z,29.20
2022-08-29T06:56:05.269Z,29.20
2022-08-29T06:58:33.390Z,29.20
2022-08-29T07:01:06.685Z,29.20
2022-08-29T07:03:34.729Z,29.20
2022-08-29T07:06:02.542Z,29.20
2022-08-29T07:08:30.261Z,29.20
2022-08-29T07:10:58.020Z,29.20
2022-08-29T07:13:25.743Z,29.20
2022-08-29T07:15:53.814Z,29.20
2022-08-29T07:18:22.886Z,29.20
2022-08-29T07:20:51.350Z,29.20
2022-08-29T07:23:19.092Z,29.30
2022-08-29T07:25:46.816Z,29.30
2022-08-29T07:28:14.678Z,29.30
2022-08-29T07:30:43.173Z,29.30
2022-08-29T07:33:10.984Z,29.30
2022-08-29T07:35:40.089Z,29.30
2022-08-29T07:38:07.861Z,29.30
2022-08-29T07:40:35.669Z,29.30
2022-08-29T07:43:04.541Z,29.30
2022-08-29T07:45:32.290Z,29.30
2022-08-29T07:48:00.030Z,29.30
2022-08-29T07:50:27.769Z,29.30
2022-08-29T07:52:58.053Z,29.30
2022-08-29T07:55:25.787Z,29.30
2022-08-29T07:57:54.340Z,29.30
2022-08-29T08:00:22.161Z,29.30
2022-08-29T08:02:49.939Z,29.30
2022-08-29T08:05:17.781Z,29.30
2022-08-29T08:07:47.325Z,29.30
2022-08-29T08:10:20.372Z,29.30
2022-08-29T08:12:51.360Z,29.30
2022-08-29T08:15:21.804Z,29.30
2022-08-29T08:17:49.701Z,29.30
2022-08-29T08:20:17.523Z,29.30
2022-08-29T08:22:45.270Z,29.30
2022-08-29T08:25:14.152Z,29.30
2022-08-29T08:27:43.746Z,29.30
2022-08-29T08:30:12.699Z,29.30
2022-08-29T08:32:45.596Z,29.30
2022-08-29T08:35:16.049Z,29.30
2022-08-29T08:37:44.353Z,29.40
2022-08-29T08:40:19.634Z,29.30
2022-08-29T08:42:50.495Z,29.30
2022-08-29T08:45:20.268Z,29.30
2022-08-29T08:47:52.586Z,29.30
2022-08-29T08:50:25.164Z,29.40
2022-08-29T08:52:58.649Z,29.40
2022-08-29T08:55:41.618Z,29.40
2022-08-29T08:58:28.997Z,29.40
2022-08-29T09:01:00.559Z,29.40
2022-08-29T09:03:52.163Z,29.40
2022-08-29T09:06:34.252Z,29.40
2022-08-29T09:09:10.306Z,29.40
2022-08-29T09:11:46.180Z,29.40
2022-08-29T09:14:26.619Z,29.40
2022-08-29T09:16:59.554Z,29.40
2022-08-29T09:19:27.790Z,29.40
2022-08-29T09:22:00.353Z,29.40
2022-08-29T09:24:33.875Z,29.40
2022-08-29T09:27:01.631Z,29.40
2022-08-29T09:29:31.889Z,29.40
2022-08-29T09:32:11.405Z,29.40
2022-08-29T09:35:06.829Z,29.40
2022-08-29T09:37:32.426Z,29.40
2022-08-29T09:40:05.359Z,29.40
2022-08-29T09:42:36.076Z,29.40
2022-08-29T09:45:16.047Z,29.40
2022-08-29T09:47:43.854Z,29.40
2022-08-29T09:50:19.880Z,29.40
2022-08-29T09:52:53.780Z,29.40
2022-08-29T09:55:28.095Z,29.40
2022-08-29T09:58:00.275Z,29.40
2022-08-29T10:00:35.104Z,29.40
2022-08-29T10:03:05.367Z,29.40
2022-08-29T10:05:40.537Z,29.40
2022-08-29T10:08:24.676Z,29.40
2022-08-29T10:10:55.715Z,29.40
2022-08-29T10:13:28.911Z,29.40
2022-08-29T10:16:06.745Z,29.40
2022-08-29T10:18:44.531Z,29.40
2022-08-29T10:21:20.269Z,29.40
2022-08-29T10:24:25.740Z,29.40
2022-08-29T10:27:01.485Z,29.40
2022-08-29T10:29:47.948Z,29.40
2022-08-29T10:32:31.030Z,29.40
2022-08-29T10:35:07.500Z,29.50
2022-08-29T10:37:47.477Z,29.50
2022-08-29T10:40:21.407Z,29.40
2022-08-29T10:42:52.065Z,29.50
2022-08-29T10:45:30.597Z,29.40
2022-08-29T10:48:06.751Z,29.50
2022-08-29T10:50:44.506Z,29.50
2022-08-29T10:53:17.972Z,29.50
2022-08-29T10:55:57.890Z,29.40
2022-08-29T10:58:46.928Z,29.50
2022-08-29T11:01:22.160Z,29.50
2022-08-29T11:04:05.375Z,29.50
2022-08-29T11:09:15.529Z,29.50
2022-08-29T11:12:00.574Z,29.50
2022-08-29T11:14:35.261Z,29.50
2022-08-29T11:17:08.456Z,29.40
2022-08-29T11:19:47.161Z,29.50
2022-08-29T11:22:19.083Z,29.50
2022-08-29T11:24:54.914Z,29.50
2022-08-29T11:27:31.461Z,29.50
2022-08-29T11:30:03.369Z,29.50
2022-08-29T11:32:39.501Z,29.50
2022-08-29T11:35:17.953Z,29.50
2022-08-29T11:38:10.174Z,29.50
2022-08-29T11:43:48.891Z,29.50
2022-08-29T11:46:25.671Z,29.50
2022-08-29T11:49:13.431Z,29.50
2022-08-29T11:51:43.646Z,29.50
2022-08-29T11:54:54.150Z,29.50
2022-08-29T11:58:04.636Z,29.50
2022-08-29T12:00:47.304Z,29.50
2022-08-29T12:03:54.693Z,29.50
2022-08-29T12:06:42.870Z,29.50
2022-08-29T12:09:41.215Z,29.60
2022-08-29T12:12:35.749Z,29.50
2022-08-29T12:15:23.505Z,29.60
2022-08-29T12:18:01.829Z,29.60
2022-08-29T12:20:42.058Z,29.50
2022-08-29T12:23:21.921Z,29.60
2022-08-29T12:26:09.656Z,29.60
2022-08-29T12:28:46.249Z,29.60
2022-08-29T12:31:31.757Z,29.60
2022-08-29T12:34:24.149Z,29.60
2022-08-29T12:37:30.823Z,29.60
2022-08-29T12:40:17.778Z,29.60
2022-08-29T12:42:57.922Z,29.60
2022-08-29T12:45:30.145Z,29.60
2022-08-29T12:48:00.963Z,29.60
2022-08-29T12:50:35.632Z,29.60
2022-08-29T12:53:05.487Z,29.60
2022-08-29T12:55:39.745Z,29.60
2022-08-29T12:58:08.348Z,29.60
2022-08-29T13:00:36.638Z,29.60
2022-08-29T13:03:09.503Z,29.70
2022-08-29T13:05:44.254Z,29.70
2022-08-29T13:08:15.797Z,29.70
2022-08-29T13:10:56.016Z,29.70
2022-08-29T13:13:25.825Z,29.70
2022-08-29T13:15:55.920Z,29.60
2022-08-29T13:18:24.616Z,29.60
2022-08-29T13:21:11.871Z,29.70
2022-08-29T13:23:45.689Z,29.70
2022-08-29T13:26:22.233Z,29.70
2022-08-29T13:28:52.383Z,29.70
2022-08-29T13:31:29.312Z,29.70
2022-08-29T13:34:29.463Z,29.70
2022-08-29T13:37:02.087Z,29.70
2022-08-29T13:39:41.817Z,29.60
2022-08-29T13:42:32.742Z,29.70
2022-08-29T13:45:20.731Z,29.60
2022-08-29T13:48:14.397Z,29.60
2022-08-29T13:50:42.354Z,29.60
2022-08-29T13:53:11.721Z,29.60
2022-08-29T13:55:42.660Z,29.60
2022-08-29T13:58:14.789Z,29.60
2022-08-29T14:00:43.633Z,29.60
2022-08-29T14:03:12.275Z,29.60
2022-08-29T14:05:40.243Z,29.60
2022-08-29T14:08:08.089Z,29.60
2022-08-29T14:10:37.165Z,29.60
2022-08-29T14:13:05.261Z,29.60
2022-08-29T14:15:33.620Z,29.60
2022-08-29T14:18:01.444Z,29.50
2022-08-29T14:20:29.173Z,29.60
2022-08-29T14:22:56.893Z,29.50
2022-08-29T14:25:24.608Z,29.60
2022-08-29T14:27:54.793Z,29.50
2022-08-29T14:30:24.651Z,29.60
2022-08-29T14:32:52.717Z,29.60
2022-08-29T14:35:26.192Z,29.60
2022-08-29T14:38:00.333Z,29.60
2022-08-29T14:40:28.878Z,29.60
2022-08-29T14:42:58.462Z,29.50
2022-08-29T14:45:26.852Z,29.60
2022-08-29T14:47:54.821Z,29.60
2022-08-29T14:50:23.468Z,29.60
2022-08-29T14:52:51.329Z,29.60
2022-08-29T14:55:19.553Z,29.50
2022-08-29T14:57:47.356Z,29.60
2022-08-29T15:00:19.387Z,29.60
2022-08-29T15:02:47.346Z,29.60
2022-08-29T15:05:15.160Z,29.60
2022-08-29T15:07:43.372Z,29.60
2022-08-29T15:10:12.385Z,29.60
2022-08-29T15:12:40.489Z,29.60
2022-08-29T15:15:09.280Z,29.60
2022-08-29T15:17:38.739Z,29.60
2022-08-29T15:22:55.885Z,29.60
2022-08-29T15:25:24.069Z,29.60
2022-08-29T15:27:51.857Z,29.60
2022-08-29T15:30:21.893Z,29.60
2022-08-29T15:32:52.118Z,29.60
2022-08-29T15:35:20.185Z,29.60
2022-08-29T15:37:48.014Z,29.60
2022-08-29T15:40:15.925Z,29.60
2022-08-29T15:42:43.743Z,29.60
2022-08-29T15:45:12.326Z,29.60
2022-08-29T15:47:46.166Z,29.60
2022-08-29T15:50:15.788Z,29.60
2022-08-29T15:52:43.563Z,29.70
2022-08-29T15:55:12.620Z,29.60
2022-08-29T15:57:51.539Z,29.60
2022-08-29T16:00:30.304Z,29.60
2022-08-29T16:03:00.766Z,29.60
2022-08-29T16:05:29.939Z,29.60
2022-08-29T16:07:57.994Z,29.60
2022-08-29T16:10:26.066Z,29.60
2022-08-29T16:12:53.997Z,29.60
2022-08-29T16:15:21.909Z,29.60
2022-08-29T16:17:49.624Z,29.60
2022-08-29T16:20:17.512Z,29.60
2022-08-29T16:22:46.616Z,29.50
2022-08-29T16:25:15.145Z,29.60
2022-08-29T16:27:43.090Z,29.60
2022-08-29T16:30:11.998Z,29.50
2022-08-29T16:32:40.079Z,29.60
2022-08-29T16:35:09.008Z,29.60
2022-08-29T16:37:37.394Z,29.50
2022-08-29T16:40:07.659Z,29.50
2022-08-29T16:42:36.932Z,29.60
2022-08-29T16:45:06.054Z,29.50
2022-08-29T16:47:34.614Z,29.60
2022-08-29T16:50:03.750Z,29.60
2022-08-29T16:52:31.602Z,29.60
2022-08-29T16:54:59.523Z,29.60
2022-08-29T16:57:29.017Z,29.60
2022-08-29T16:59:56.777Z,29.60
2022-08-29T17:02:24.732Z,29.60
2022-08-29T17:04:52.541Z,29.60
2022-08-29T17:07:20.735Z,29.60
2022-08-29T17:09:47.452Z,29.70
2022-08-29T17:12:14.148Z,29.60
2022-08-29T17:14:44.326Z,29.70
2022-08-29T17:17:12.129Z,29.60
2022-08-29T17:19:39.968Z,29.70
2022-08-29T17:22:09.041Z,29.70
2022-08-29T17:24:36.777Z,29.70
2022-08-29T17:27:04.558Z,29.70
2022-08-29T17:29:32.296Z,29.70
2022-08-29T17:32:01.363Z,29.70
2022-08-29T17:34:29.141Z,29.80
2022-08-29T17:36:56.880Z,29.80
2022-08-29T17:39:24.634Z,29.80
2022-08-29T17:41:52.796Z,29.70
2022-08-29T17:44:20.675Z,29.70
2022-08-29T17:46:48.412Z,29.70
2022-08-29T17:49:17.653Z,29.70
2022-08-29T17:51:53.448Z,29.70
2022-08-29T17:54:22.885Z,29.70
2022-08-29T17:56:52.809Z,29.70
2022-08-29T17:59:22.032Z,29.70
2022-08-29T18:01:51.540Z,29.70
2022-08-29T18:04:22.023Z,29.70
2022-08-29T18:06:51.756Z,29.70
2022-08-29T18:09:21.234Z,29.60
2022-08-29T18:11:51.656Z,29.60
2022-08-29T18:14:22.542Z,29.60
2022-08-29T18:16:50.414Z,29.50
2022-08-29T18:19:21.142Z,29.50
2022-08-29T18:21:49.686Z,29.40
2022-08-29T18:24:18.273Z,29.30
2022-08-29T18:26:47.664Z,29.20
2022-08-29T18:29:16.314Z,29.20
2022-08-29T18:31:44.797Z,29.20
2022-08-29T18:34:13.625Z,29.10
2022-08-29T18:36:44.631Z,29.10
2022-08-29T18:39:13.861Z,29.00
2022-08-29T18:41:41.700Z,29.00
2022-08-29T18:44:10.149Z,28.90
2022-08-29T18:46:40.843Z,28.90
2022-08-29T18:49:09.033Z,28.90
2022-08-29T18:51:39.487Z,28.90
2022-08-29T18:54:09.505Z,28.80
2022-08-29T18:56:37.293Z,28.80
2022-08-29T18:59:05.327Z,28.80
2022-08-29T19:01:33.811Z,28.70
2022-08-29T19:04:03.196Z,28.70
2022-08-29T19:06:31.433Z,28.60
2022-08-29T19:09:00.017Z,28.60
2022-08-29T19:11:29.359Z,28.60
2022-08-29T19:13:57.143Z,28.60
2022-08-29T19:16:25.620Z,28.60
2022-08-29T19:18:53.465Z,28.60
2022-08-29T19:21:20.529Z,28.50
2022-08-29T19:23:51.973Z,28.50
2022-08-29T19:26:23.652Z,28.50
2022-08-29T19:28:55.415Z,28.50
2022-08-29T19:31:26.910Z,28.50
2022-08-29T19:33:54.681Z,28.50
2022-08-29T19:36:23.338Z,28.50
2022-08-29T19:38:51.156Z,28.50
2022-08-29T19:41:19.840Z,28.50
2022-08-29T19:43:47.708Z,28.60
2022-08-29T19:46:19.880Z,28.60
2022-08-29T19:48:50.983Z,28.60
2022-08-29T19:51:21.455Z,28.70
2022-08-29T19:53:49.991Z,28.70
2022-08-29T19:56:18.568Z,28.70
2022-08-29T19:58:46.366Z,28.70
2022-08-29T20:01:19.128Z,28.80
2022-08-29T20:03:46.953Z,28.80
2022-08-29T20:06:14.810Z,28.80
2022-08-29T20:08:46.530Z,28.80
2022-08-29T20:11:16.146Z,28.80
2022-08-29T20:13:50.533Z,28.80
2022-08-29T20:16:23.928Z,28.80
2022-08-29T20:18:52.304Z,28.80
2022-08-29T20:21:20.925Z,28.90
2022-08-29T20:23:54.746Z,28.90
2022-08-29T20:26:27.047Z,28.90
2022-08-29T20:28:55.686Z,28.90
2022-08-29T20:31:25.056Z,28.90
2022-08-29T20:33:53.295Z,28.90
2022-08-29T20:36:40.814Z,28.90
2022-08-29T20:39:10.604Z,28.90
2022-08-29T20:41:38.539Z,28.90
2022-08-29T20:44:09.540Z,28.90
2022-08-29T20:46:41.392Z,28.90
2022-08-29T20:49:09.636Z,28.90
2022-08-29T20:51:38.157Z,28.90
2022-08-29T20:54:06.740Z,28.90
2022-08-29T20:56:34.889Z,28.90
2022-08-29T20:59:02.607Z,28.90
2022-08-29T21:01:30.573Z,29.00
2022-08-29T21:04:20.922Z,29.00
2022-08-29T21:06:49.325Z,29.00
2022-08-29T21:09:17.097Z,29.00
2022-08-29T21:11:44.870Z,29.00
2022-08-29T21:14:12.825Z,29.00
2022-08-29T21:16:40.836Z,29.00
2022-08-29T21:19:09.974Z,29.00
2022-08-29T21:21:39.113Z,29.00
2022-08-29T21:24:08.675Z,29.00
2022-08-29T21:26:37.177Z,29.00
2022-08-29T21:29:05.674Z,29.00
2022-08-29T21:31:34.573Z,29.00
2022-08-29T21:34:06.765Z,29.00
2022-08-29T21:36:36.851Z,29.00
2022-08-29T21:39:06.829Z,29.00
2022-08-29T21:41:38.461Z,29.00
2022-08-29T21:44:06.333Z,29.00
2022-08-29T21:46:36.602Z,29.00
2022-08-29T21:49:06.681Z,29.00
2022-08-29T21:51:36.534Z,29.00
2022-08-29T21:54:05.161Z,29.00
2022-08-29T21:56:34.455Z,29.00
2022-08-29T21:59:03.713Z,29.00
2022-08-29T22:01:38.704Z,29.00
2022-08-29T22:04:08.373Z,29.00
2022-08-29T22:06:41.092Z,29.00
2022-08-29T22:09:10.128Z,29.00
2022-08-29T22:11:38.651Z,29.00
2022-08-29T22:14:07.744Z,29.00
2022-08-29T22:16:34.681Z,29.00
2022-08-29T22:19:05.121Z,29.00
2022-08-29T22:21:35.313Z,28.90
2022-08-29T22:24:05.274Z,29.00
2022-08-29T22:26:33.196Z,29.00
2022-08-29T22:29:01.978Z,29.00
2022-08-29T22:31:31.731Z,28.90
2022-08-29T22:33:59.674Z,29.00
2022-08-29T22:36:27.632Z,28.90
2022-08-29T22:38:56.761Z,28.90
2022-08-29T22:41:26.339Z,28.90
2022-08-29T22:44:19.801Z,28.90
2022-08-29T22:46:44.643Z,28.90
2022-08-29T22:49:12.489Z,28.90
2022-08-29T22:51:40.316Z,28.90
2022-08-29T22:54:25.509Z,28.90
2022-08-29T22:56:54.831Z,28.90
2022-08-29T22:59:23.066Z,28.90
2022-08-29T23:01:50.882Z,28.90
2022-08-29T23:04:19.012Z,28.90
2022-08-29T23:06:46.829Z,28.90
2022-08-29T23:09:14.600Z,28.90
2022-08-29T23:11:42.890Z,28.90
2022-08-29T23:14:12.735Z,28.90
2022-08-29T23:16:40.837Z,28.90
2022-08-29T23:19:09.025Z,28.90
2022-08-29T23:21:39.605Z,28.90
2022-08-29T23:24:08.982Z,28.90
2022-08-29T23:26:37.445Z,28.90
2022-08-29T23:29:05.984Z,28.90
2022-08-29T23:31:35.596Z,28.90
2022-08-29T23:34:03.368Z,28.90
2022-08-29T23:36:31.104Z,28.90
2022-08-29T23:38:58.827Z,28.90
2022-08-29T23:41:26.557Z,28.90
2022-08-29T23:43:54.287Z,28.90
2022-08-29T23:46:22.827Z,28.90
2022-08-29T23:48:52.254Z,28.90
2022-08-29T23:51:20.470Z,28.90
2022-08-29T23:53:48.812Z,28.90
2022-08-29T23:56:20.055Z,28.90
2022-08-29T23:58:48.406Z,28.90
